< < Back
Terminal Aerodrome Forecast


Current Version              Previous Versions:   1  2  3  4  5  6  7  8  9  

Terminal Aerodrome Forecast

099
FTUS42 KGSP 271734
TAFHKY
TAF
KHKY 271734Z 2718/2818 18004KT P6SM BKN060
     FM272100 25004KT P6SM VCTS BKN050CB
     FM280000 04003KT P6SM FEW070 BKN250
     FM280900 00000KT 4SM BR BKN250
     FM281300 00000KT P6SM SCT035
     FM281600 00000KT P6SM BKN035=



Latest METAR

347
SAUS70 KWBC 280800 RRF
MTRHKY
METAR KHKY 280753Z AUTO 00000KT 7SM SCT110 22/21 A3002 RMK AO2 SLP142
T02220211 $


USA.gov is the U.S. government's official web portal to all federal, state and local government web resources and services.